Strona główna
METAR-TAF:

METAR-TAF

Lotnisko :

Gaspe, Quebec, Kanada

Szerokość geograficzna: 48-46N, Długość geograficzna: 064-29W, wysokość: 33 m

Aktualna obserwacja pogody

Raport powstał 43 minut temu, godzina 06:00 UTC
Wiatr 2 kt z kierunków zmiennych
Temperatura -18°C
Wilgotność 71%
Ciśnienie 1036 hPa
Widzialność: 24.1 km
bezchmurnie

METAR: CYGP 130600Z VRB02KT 15SM SKC M18/M22 A3059 RMK SLP364

czas: 01:43 (06:43 UTC)

Prognoza

Raport powstał 5 godziny i 5 minut temu, godzina 01:38 UTC
Prognoza ważna od 13 godzina 02 UTC do 13 godzina 14 UTC
Wiatr 7 kt od zachodnio-północny zachód
Widzialność: 10 km
Mało chmury na wysokości 5000 ft
Od 13 godzina 1200 UTC
Wiatr 5 kt od zachód
Widzialność: 10 km
Rozproszone chmury na wysokości 4000 ft
Przerywane chmury na wysokości 8000 ft

TAF: CYGP 130138Z 1302/1314 29007KT P6SM FEW050 FM131200 26005KT P6SM SCT040 BKN080 RMK NXT FCST BY 130800Z

Obserwacja i prognoza pogody dla ponad 4000 lotnisk (raport METAR i TAF).

Dostępne stacje oznaczono żółtymi i czerwonymi punktami na mapie.

Najedź kursorem aby zobaczyć nazwę stacji.

Kliknij aby zobaczyć obserwacje i prognozy pogody.

Aby zmienić mapę: kliknij na zielony przycisk z czarnym krzyżykiem, aby powiększyć; na zielony przycisk z myślnikiem, aby pomniejszyć; na zielone strzałki, aby przejść do map sąsiednich.


METAR-TAF: